sensor_id;sensor_type;location;lat;lon;timestamp;P1;durP1;ratioP1;P2;durP2;ratioP2
18206;SDS011;9229;52.354;20.886;2022-07-29T00:04:51;5.57;;;4.00;;
18206;SDS011;9229;52.354;20.886;2022-07-29T00:09:53;8.10;;;4.25;;
18206;SDS011;9229;52.354;20.886;2022-07-29T00:14:55;9.57;;;4.15;;
18206;SDS011;9229;52.354;20.886;2022-07-29T00:19:59;4.15;;;3.60;;
18206;SDS011;9229;52.354;20.886;2022-07-29T00:25:01;12.60;;;4.22;;
18206;SDS011;9229;52.354;20.886;2022-07-29T00:30:03;4.72;;;3.40;;
18206;SDS011;9229;52.354;20.886;2022-07-29T00:35:08;4.50;;;3.97;;
18206;SDS011;9229;52.354;20.886;2022-07-29T00:40:28;4.45;;;3.28;;
18206;SDS011;9229;52.354;20.886;2022-07-29T00:45:30;4.95;;;3.80;;
18206;SDS011;9229;52.354;20.886;2022-07-29T00:50:33;8.23;;;4.03;;
18206;SDS011;9229;52.354;20.886;2022-07-29T00:55:35;3.72;;;3.42;;
18206;SDS011;9229;52.354;20.886;2022-07-29T01:00:37;7.00;;;3.90;;
18206;SDS011;9229;52.354;20.886;2022-07-29T01:05:42;4.15;;;3.72;;
18206;SDS011;9229;52.354;20.886;2022-07-29T01:10:46;3.90;;;3.38;;
18206;SDS011;9229;52.354;20.886;2022-07-29T01:15:49;5.35;;;3.60;;
18206;SDS011;9229;52.354;20.886;2022-07-29T01:21:03;4.10;;;3.67;;
18206;SDS011;9229;52.354;20.886;2022-07-29T01:26:22;7.63;;;3.90;;
18206;SDS011;9229;52.354;20.886;2022-07-29T01:31:43;7.68;;;3.70;;
18206;SDS011;9229;52.354;20.886;2022-07-29T01:36:48;4.00;;;3.60;;
18206;SDS011;9229;52.354;20.886;2022-07-29T01:41:56;4.32;;;3.78;;
18206;SDS011;9229;52.354;20.886;2022-07-29T01:47:08;6.10;;;4.22;;
18206;SDS011;9229;52.354;20.886;2022-07-29T01:52:16;4.40;;;4.00;;
18206;SDS011;9229;52.354;20.886;2022-07-29T01:57:25;7.18;;;4.30;;
18206;SDS011;9229;52.354;20.886;2022-07-29T02:02:30;4.70;;;4.10;;
18206;SDS011;9229;52.354;20.886;2022-07-29T02:07:33;8.63;;;3.90;;
18206;SDS011;9229;52.354;20.886;2022-07-29T02:12:37;8.68;;;3.97;;
18206;SDS011;9229;52.354;20.886;2022-07-29T02:17:43;5.15;;;4.38;;
18206;SDS011;9229;52.354;20.886;2022-07-29T02:22:47;6.00;;;4.57;;
18206;SDS011;9229;52.354;20.886;2022-07-29T02:27:51;6.07;;;3.97;;
18206;SDS011;9229;52.354;20.886;2022-07-29T02:32:55;10.00;;;4.50;;
18206;SDS011;9229;52.354;20.886;2022-07-29T02:37:58;7.30;;;4.55;;
18206;SDS011;9229;52.354;20.886;2022-07-29T02:43:17;5.35;;;4.20;;
18206;SDS011;9229;52.354;20.886;2022-07-29T02:48:25;4.50;;;4.10;;
18206;SDS011;9229;52.354;20.886;2022-07-29T02:53:33;7.10;;;4.18;;
18206;SDS011;9229;52.354;20.886;2022-07-29T02:58:37;7.15;;;4.32;;
18206;SDS011;9229;52.354;20.886;2022-07-29T03:03:43;6.05;;;4.25;;
18206;SDS011;9229;52.354;20.886;2022-07-29T03:08:46;6.32;;;4.15;;
18206;SDS011;9229;52.354;20.886;2022-07-29T03:13:49;4.22;;;3.92;;
18206;SDS011;9229;52.354;20.886;2022-07-29T03:18:52;5.38;;;4.85;;
18206;SDS011;9229;52.354;20.886;2022-07-29T03:23:55;4.43;;;4.03;;
18206;SDS011;9229;52.354;20.886;2022-07-29T03:28:57;5.18;;;4.50;;
18206;SDS011;9229;52.354;20.886;2022-07-29T03:34:00;5.95;;;4.05;;
18206;SDS011;9229;52.354;20.886;2022-07-29T03:39:02;5.78;;;4.75;;
18206;SDS011;9229;52.354;20.886;2022-07-29T03:44:05;4.53;;;4.13;;
18206;SDS011;9229;52.354;20.886;2022-07-29T03:49:09;5.82;;;4.60;;
18206;SDS011;9229;52.354;20.886;2022-07-29T03:54:14;5.03;;;4.55;;
18206;SDS011;9229;52.354;20.886;2022-07-29T03:59:16;5.13;;;4.63;;
18206;SDS011;9229;52.354;20.886;2022-07-29T04:04:21;5.97;;;4.35;;
18206;SDS011;9229;52.354;20.886;2022-07-29T04:09:23;7.55;;;4.72;;
18206;SDS011;9229;52.354;20.886;2022-07-29T04:14:25;4.93;;;4.13;;
18206;SDS011;9229;52.354;20.886;2022-07-29T04:19:28;6.20;;;4.32;;
18206;SDS011;9229;52.354;20.886;2022-07-29T04:24:30;6.15;;;4.82;;
18206;SDS011;9229;52.354;20.886;2022-07-29T04:29:32;5.43;;;4.07;;
18206;SDS011;9229;52.354;20.886;2022-07-29T04:34:35;4.13;;;3.92;;
18206;SDS011;9229;52.354;20.886;2022-07-29T04:39:36;7.47;;;4.10;;
18206;SDS011;9229;52.354;20.886;2022-07-29T04:44:38;7.43;;;4.57;;
18206;SDS011;9229;52.354;20.886;2022-07-29T04:49:42;5.60;;;4.40;;
18206;SDS011;9229;52.354;20.886;2022-07-29T04:54:44;4.18;;;3.83;;
18206;SDS011;9229;52.354;20.886;2022-07-29T04:59:45;7.30;;;3.80;;
18206;SDS011;9229;52.354;20.886;2022-07-29T05:04:48;10.88;;;4.05;;
18206;SDS011;9229;52.354;20.886;2022-07-29T05:09:50;3.90;;;3.47;;
18206;SDS011;9229;52.354;20.886;2022-07-29T05:14:53;5.20;;;3.17;;
18206;SDS011;9229;52.354;20.886;2022-07-29T05:19:56;3.40;;;3.20;;
18206;SDS011;9229;52.354;20.886;2022-07-29T05:24:58;3.22;;;3.03;;
18206;SDS011;9229;52.354;20.886;2022-07-29T05:30:00;3.13;;;2.88;;
18206;SDS011;9229;52.354;20.886;2022-07-29T05:35:06;2.80;;;2.60;;
18206;SDS011;9229;52.354;20.886;2022-07-29T05:40:08;5.35;;;2.83;;
18206;SDS011;9229;52.354;20.886;2022-07-29T05:45:10;3.05;;;2.30;;
18206;SDS011;9229;52.354;20.886;2022-07-29T05:50:14;10.13;;;3.17;;
18206;SDS011;9229;52.354;20.886;2022-07-29T05:55:16;2.25;;;2.15;;
18206;SDS011;9229;52.354;20.886;2022-07-29T06:00:18;1.88;;;1.67;;
18206;SDS011;9229;52.354;20.886;2022-07-29T06:05:21;1.85;;;1.60;;
18206;SDS011;9229;52.354;20.886;2022-07-29T06:10:23;1.90;;;1.80;;
18206;SDS011;9229;52.354;20.886;2022-07-29T06:15:25;5.38;;;1.75;;
18206;SDS011;9229;52.354;20.886;2022-07-29T06:20:28;3.55;;;1.50;;
18206;SDS011;9229;52.354;20.886;2022-07-29T06:25:31;1.63;;;1.30;;
18206;SDS011;9229;52.354;20.886;2022-07-29T06:30:34;3.10;;;1.58;;
18206;SDS011;9229;52.354;20.886;2022-07-29T06:35:38;27.02;;;5.78;;
18206;SDS011;9229;52.354;20.886;2022-07-29T06:40:42;2.72;;;1.40;;
18206;SDS011;9229;52.354;20.886;2022-07-29T06:46:05;1.42;;;1.25;;
18206;SDS011;9229;52.354;20.886;2022-07-29T06:51:09;1.95;;;1.30;;
18206;SDS011;9229;52.354;20.886;2022-07-29T06:56:12;2.45;;;1.70;;
18206;SDS011;9229;52.354;20.886;2022-07-29T07:01:14;1.20;;;1.20;;
18206;SDS011;9229;52.354;20.886;2022-07-29T07:06:17;1.00;;;1.00;;
18206;SDS011;9229;52.354;20.886;2022-07-29T07:11:19;1.15;;;1.15;;
18206;SDS011;9229;52.354;20.886;2022-07-29T07:16:21;1.80;;;1.00;;
18206;SDS011;9229;52.354;20.886;2022-07-29T07:21:24;1.13;;;1.13;;
18206;SDS011;9229;52.354;20.886;2022-07-29T07:26:26;2.28;;;1.10;;
18206;SDS011;9229;52.354;20.886;2022-07-29T07:31:28;1.67;;;1.10;;
18206;SDS011;9229;52.354;20.886;2022-07-29T07:36:31;1.27;;;1.20;;
18206;SDS011;9229;52.354;20.886;2022-07-29T07:41:33;2.90;;;1.00;;
18206;SDS011;9229;52.354;20.886;2022-07-29T07:46:35;1.40;;;1.30;;
18206;SDS011;9229;52.354;20.886;2022-07-29T07:51:38;2.58;;;1.17;;
18206;SDS011;9229;52.354;20.886;2022-07-29T07:56:40;3.78;;;1.20;;
18206;SDS011;9229;52.354;20.886;2022-07-29T08:01:42;1.05;;;0.93;;
18206;SDS011;9229;52.354;20.886;2022-07-29T08:06:45;1.20;;;1.05;;
18206;SDS011;9229;52.354;20.886;2022-07-29T08:11:49;17.77;;;2.30;;
18206;SDS011;9229;52.354;20.886;2022-07-29T08:16:51;4.55;;;1.35;;
18206;SDS011;9229;52.354;20.886;2022-07-29T08:21:55;1.73;;;1.20;;
18206;SDS011;9229;52.354;20.886;2022-07-29T08:26:57;1.15;;;1.00;;
18206;SDS011;9229;52.354;20.886;2022-07-29T08:31:59;1.45;;;1.00;;
18206;SDS011;9229;52.354;20.886;2022-07-29T08:37:02;30.92;;;3.30;;
18206;SDS011;9229;52.354;20.886;2022-07-29T08:42:04;6.47;;;1.20;;
18206;SDS011;9229;52.354;20.886;2022-07-29T08:47:07;3.33;;;0.80;;
18206;SDS011;9229;52.354;20.886;2022-07-29T08:52:11;1.10;;;1.10;;
18206;SDS011;9229;52.354;20.886;2022-07-29T08:57:13;1.33;;;1.33;;
18206;SDS011;9229;52.354;20.886;2022-07-29T09:02:18;2.67;;;0.90;;
18206;SDS011;9229;52.354;20.886;2022-07-29T09:07:22;2.60;;;1.17;;
18206;SDS011;9229;52.354;20.886;2022-07-29T09:12:24;1.92;;;1.10;;
18206;SDS011;9229;52.354;20.886;2022-07-29T09:22:45;1.65;;;1.55;;
18206;SDS011;9229;52.354;20.886;2022-07-29T09:27:49;2.95;;;1.17;;
18206;SDS011;9229;52.354;20.886;2022-07-29T09:32:55;2.72;;;1.08;;
18206;SDS011;9229;52.354;20.886;2022-07-29T09:38:10;2.85;;;1.30;;
18206;SDS011;9229;52.354;20.886;2022-07-29T09:43:12;1.80;;;1.30;;
18206;SDS011;9229;52.354;20.886;2022-07-29T09:48:15;3.13;;;0.80;;
18206;SDS011;9229;52.354;20.886;2022-07-29T09:53:32;0.98;;;0.98;;
18206;SDS011;9229;52.354;20.886;2022-07-29T09:58:35;2.50;;;1.42;;
18206;SDS011;9229;52.354;20.886;2022-07-29T10:03:50;32.70;;;7.30;;
18206;SDS011;9229;52.354;20.886;2022-07-29T10:08:55;7.57;;;1.55;;
18206;SDS011;9229;52.354;20.886;2022-07-29T10:14:09;1.15;;;0.93;;
18206;SDS011;9229;52.354;20.886;2022-07-29T10:19:11;3.60;;;1.17;;
18206;SDS011;9229;52.354;20.886;2022-07-29T10:24:15;1.05;;;0.80;;
18206;SDS011;9229;52.354;20.886;2022-07-29T10:29:18;1.15;;;0.90;;
18206;SDS011;9229;52.354;20.886;2022-07-29T10:34:23;2.28;;;0.80;;
18206;SDS011;9229;52.354;20.886;2022-07-29T10:39:40;1.00;;;1.00;;
18206;SDS011;9229;52.354;20.886;2022-07-29T10:44:53;1.52;;;1.05;;
18206;SDS011;9229;52.354;20.886;2022-07-29T10:49:59;0.95;;;0.95;;
18206;SDS011;9229;52.354;20.886;2022-07-29T10:55:04;0.90;;;0.88;;
18206;SDS011;9229;52.354;20.886;2022-07-29T11:00:26;0.88;;;0.88;;
18206;SDS011;9229;52.354;20.886;2022-07-29T11:22:04;2.80;;;1.00;;
18206;SDS011;9229;52.354;20.886;2022-07-29T11:27:10;1.08;;;1.08;;
18206;SDS011;9229;52.354;20.886;2022-07-29T11:32:15;1.73;;;1.17;;
18206;SDS011;9229;52.354;20.886;2022-07-29T11:37:20;1.80;;;0.85;;
18206;SDS011;9229;52.354;20.886;2022-07-29T11:47:49;3.83;;;0.90;;
18206;SDS011;9229;52.354;20.886;2022-07-29T11:52:53;28.85;;;3.90;;
18206;SDS011;9229;52.354;20.886;2022-07-29T11:57:56;1.77;;;0.93;;
18206;SDS011;9229;52.354;20.886;2022-07-29T12:03:01;0.80;;;0.80;;
18206;SDS011;9229;52.354;20.886;2022-07-29T12:08:09;2.65;;;0.70;;
18206;SDS011;9229;52.354;20.886;2022-07-29T12:13:14;6.70;;;1.10;;
18206;SDS011;9229;52.354;20.886;2022-07-29T12:18:19;1.83;;;1.05;;
18206;SDS011;9229;52.354;20.886;2022-07-29T12:23:21;1.25;;;0.60;;
18206;SDS011;9229;52.354;20.886;2022-07-29T12:28:23;0.80;;;0.80;;
18206;SDS011;9229;52.354;20.886;2022-07-29T12:33:27;2.80;;;1.10;;
18206;SDS011;9229;52.354;20.886;2022-07-29T12:38:29;0.90;;;0.82;;
18206;SDS011;9229;52.354;20.886;2022-07-29T12:43:32;0.60;;;0.60;;
18206;SDS011;9229;52.354;20.886;2022-07-29T12:48:35;1.50;;;0.77;;
18206;SDS011;9229;52.354;20.886;2022-07-29T12:53:38;2.85;;;1.00;;
18206;SDS011;9229;52.354;20.886;2022-07-29T12:58:41;0.60;;;0.57;;
18206;SDS011;9229;52.354;20.886;2022-07-29T13:03:46;1.00;;;1.00;;
18206;SDS011;9229;52.354;20.886;2022-07-29T13:08:58;1.77;;;1.00;;
18206;SDS011;9229;52.354;20.886;2022-07-29T13:14:05;0.77;;;0.77;;
18206;SDS011;9229;52.354;20.886;2022-07-29T13:19:11;3.75;;;1.33;;
18206;SDS011;9229;52.354;20.886;2022-07-29T13:24:13;3.50;;;1.25;;
18206;SDS011;9229;52.354;20.886;2022-07-29T13:29:15;1.10;;;1.00;;
18206;SDS011;9229;52.354;20.886;2022-07-29T13:34:18;9.25;;;1.40;;
18206;SDS011;9229;52.354;20.886;2022-07-29T13:39:22;2.47;;;0.98;;
18206;SDS011;9229;52.354;20.886;2022-07-29T13:44:24;0.82;;;0.82;;
18206;SDS011;9229;52.354;20.886;2022-07-29T13:49:27;1.50;;;0.90;;
18206;SDS011;9229;52.354;20.886;2022-07-29T13:54:29;1.08;;;0.70;;
18206;SDS011;9229;52.354;20.886;2022-07-29T13:59:31;3.50;;;0.90;;
18206;SDS011;9229;52.354;20.886;2022-07-29T14:04:34;1.30;;;0.73;;
18206;SDS011;9229;52.354;20.886;2022-07-29T14:09:36;1.85;;;0.93;;
18206;SDS011;9229;52.354;20.886;2022-07-29T14:14:38;1.17;;;0.85;;
18206;SDS011;9229;52.354;20.886;2022-07-29T14:19:41;0.90;;;0.90;;
18206;SDS011;9229;52.354;20.886;2022-07-29T14:24:43;1.38;;;0.80;;
18206;SDS011;9229;52.354;20.886;2022-07-29T14:29:44;1.95;;;1.00;;
18206;SDS011;9229;52.354;20.886;2022-07-29T14:34:47;3.03;;;0.80;;
18206;SDS011;9229;52.354;20.886;2022-07-29T14:39:49;1.00;;;1.00;;
18206;SDS011;9229;52.354;20.886;2022-07-29T14:44:51;1.08;;;0.98;;
18206;SDS011;9229;52.354;20.886;2022-07-29T14:49:54;1.23;;;1.10;;
18206;SDS011;9229;52.354;20.886;2022-07-29T14:54:56;1.50;;;0.95;;
18206;SDS011;9229;52.354;20.886;2022-07-29T14:59:58;1.25;;;1.20;;
18206;SDS011;9229;52.354;20.886;2022-07-29T15:05:01;1.35;;;1.25;;
18206;SDS011;9229;52.354;20.886;2022-07-29T15:10:03;5.15;;;1.13;;
18206;SDS011;9229;52.354;20.886;2022-07-29T15:15:05;1.85;;;1.08;;
18206;SDS011;9229;52.354;20.886;2022-07-29T15:20:10;0.80;;;0.80;;
18206;SDS011;9229;52.354;20.886;2022-07-29T15:25:12;1.77;;;1.13;;
18206;SDS011;9229;52.354;20.886;2022-07-29T15:30:14;1.20;;;1.08;;
18206;SDS011;9229;52.354;20.886;2022-07-29T15:35:18;1.67;;;1.20;;
18206;SDS011;9229;52.354;20.886;2022-07-29T15:40:20;2.78;;;1.70;;
18206;SDS011;9229;52.354;20.886;2022-07-29T15:45:21;3.28;;;1.20;;
18206;SDS011;9229;52.354;20.886;2022-07-29T15:50:25;1.15;;;1.13;;
18206;SDS011;9229;52.354;20.886;2022-07-29T15:55:26;2.85;;;1.20;;
18206;SDS011;9229;52.354;20.886;2022-07-29T16:00:28;4.53;;;1.00;;
18206;SDS011;9229;52.354;20.886;2022-07-29T16:05:31;1.10;;;1.10;;
18206;SDS011;9229;52.354;20.886;2022-07-29T16:10:33;1.52;;;1.40;;
18206;SDS011;9229;52.354;20.886;2022-07-29T16:15:35;1.85;;;1.10;;
18206;SDS011;9229;52.354;20.886;2022-07-29T16:20:38;2.03;;;1.02;;
18206;SDS011;9229;52.354;20.886;2022-07-29T16:25:40;4.93;;;1.50;;
18206;SDS011;9229;52.354;20.886;2022-07-29T16:30:42;4.10;;;1.05;;
18206;SDS011;9229;52.354;20.886;2022-07-29T16:35:46;1.70;;;1.17;;
18206;SDS011;9229;52.354;20.886;2022-07-29T16:40:47;1.40;;;1.40;;
18206;SDS011;9229;52.354;20.886;2022-07-29T16:45:49;1.23;;;1.20;;
18206;SDS011;9229;52.354;20.886;2022-07-29T16:50:52;3.13;;;1.13;;
18206;SDS011;9229;52.354;20.886;2022-07-29T16:55:55;1.23;;;1.13;;
18206;SDS011;9229;52.354;20.886;2022-07-29T17:00:57;1.83;;;1.55;;
18206;SDS011;9229;52.354;20.886;2022-07-29T17:06:00;3.20;;;1.27;;
18206;SDS011;9229;52.354;20.886;2022-07-29T17:11:02;1.30;;;1.30;;
18206;SDS011;9229;52.354;20.886;2022-07-29T17:16:04;3.50;;;1.23;;
18206;SDS011;9229;52.354;20.886;2022-07-29T17:21:08;4.15;;;1.10;;
18206;SDS011;9229;52.354;20.886;2022-07-29T17:26:10;6.43;;;1.30;;
18206;SDS011;9229;52.354;20.886;2022-07-29T17:31:11;7.60;;;1.20;;
18206;SDS011;9229;52.354;20.886;2022-07-29T17:36:15;2.88;;;1.15;;
18206;SDS011;9229;52.354;20.886;2022-07-29T17:41:26;3.75;;;0.95;;
18206;SDS011;9229;52.354;20.886;2022-07-29T17:46:28;1.40;;;1.30;;
18206;SDS011;9229;52.354;20.886;2022-07-29T17:51:31;1.83;;;1.40;;
18206;SDS011;9229;52.354;20.886;2022-07-29T17:56:33;1.67;;;1.25;;
18206;SDS011;9229;52.354;20.886;2022-07-29T18:01:35;9.00;;;1.85;;
18206;SDS011;9229;52.354;20.886;2022-07-29T18:06:40;2.05;;;1.33;;
18206;SDS011;9229;52.354;20.886;2022-07-29T18:11:42;5.45;;;1.20;;
18206;SDS011;9229;52.354;20.886;2022-07-29T18:16:45;1.30;;;1.30;;
18206;SDS011;9229;52.354;20.886;2022-07-29T18:21:48;2.25;;;1.33;;
18206;SDS011;9229;52.354;20.886;2022-07-29T18:26:50;5.88;;;1.40;;
18206;SDS011;9229;52.354;20.886;2022-07-29T18:31:51;8.85;;;1.60;;
18206;SDS011;9229;52.354;20.886;2022-07-29T18:36:55;2.13;;;1.50;;
18206;SDS011;9229;52.354;20.886;2022-07-29T18:41:56;1.55;;;1.30;;
18206;SDS011;9229;52.354;20.886;2022-07-29T18:46:59;13.02;;;1.67;;
18206;SDS011;9229;52.354;20.886;2022-07-29T18:52:02;2.45;;;1.60;;
18206;SDS011;9229;52.354;20.886;2022-07-29T18:57:04;1.33;;;1.27;;
18206;SDS011;9229;52.354;20.886;2022-07-29T19:02:06;1.75;;;1.42;;
18206;SDS011;9229;52.354;20.886;2022-07-29T19:07:09;4.70;;;1.70;;
18206;SDS011;9229;52.354;20.886;2022-07-29T19:12:11;9.25;;;2.13;;
18206;SDS011;9229;52.354;20.886;2022-07-29T19:17:13;2.90;;;2.03;;
18206;SDS011;9229;52.354;20.886;2022-07-29T19:22:16;6.75;;;1.80;;
18206;SDS011;9229;52.354;20.886;2022-07-29T19:27:18;2.55;;;1.60;;
18206;SDS011;9229;52.354;20.886;2022-07-29T19:32:19;1.60;;;1.50;;
18206;SDS011;9229;52.354;20.886;2022-07-29T19:37:23;1.60;;;1.60;;
18206;SDS011;9229;52.354;20.886;2022-07-29T19:42:25;4.75;;;1.73;;
18206;SDS011;9229;52.354;20.886;2022-07-29T19:47:26;2.38;;;1.67;;
18206;SDS011;9229;52.354;20.886;2022-07-29T19:52:30;1.85;;;1.40;;
18206;SDS011;9229;52.354;20.886;2022-07-29T19:57:31;1.38;;;1.38;;
18206;SDS011;9229;52.354;20.886;2022-07-29T20:02:34;3.15;;;1.90;;
18206;SDS011;9229;52.354;20.886;2022-07-29T20:07:37;2.70;;;1.75;;
18206;SDS011;9229;52.354;20.886;2022-07-29T20:12:39;2.33;;;1.70;;
18206;SDS011;9229;52.354;20.886;2022-07-29T20:17:41;3.15;;;1.60;;
18206;SDS011;9229;52.354;20.886;2022-07-29T20:22:44;1.48;;;1.38;;
18206;SDS011;9229;52.354;20.886;2022-07-29T20:27:46;2.08;;;1.88;;
18206;SDS011;9229;52.354;20.886;2022-07-29T20:32:51;2.30;;;1.90;;
18206;SDS011;9229;52.354;20.886;2022-07-29T20:37:54;1.88;;;1.55;;
18206;SDS011;9229;52.354;20.886;2022-07-29T20:42:56;1.65;;;1.58;;
18206;SDS011;9229;52.354;20.886;2022-07-29T20:47:57;1.95;;;1.80;;
18206;SDS011;9229;52.354;20.886;2022-07-29T20:53:01;3.00;;;1.63;;
18206;SDS011;9229;52.354;20.886;2022-07-29T20:58:03;1.70;;;1.60;;
18206;SDS011;9229;52.354;20.886;2022-07-29T21:03:05;1.60;;;1.50;;
18206;SDS011;9229;52.354;20.886;2022-07-29T21:08:08;1.88;;;1.77;;
18206;SDS011;9229;52.354;20.886;2022-07-29T21:13:10;5.10;;;2.00;;
18206;SDS011;9229;52.354;20.886;2022-07-29T21:18:13;1.67;;;1.67;;
18206;SDS011;9229;52.354;20.886;2022-07-29T21:23:27;4.97;;;1.80;;
18206;SDS011;9229;52.354;20.886;2022-07-29T21:28:30;1.98;;;1.88;;
18206;SDS011;9229;52.354;20.886;2022-07-29T21:33:37;1.83;;;1.73;;
18206;SDS011;9229;52.354;20.886;2022-07-29T21:38:42;4.10;;;2.17;;
18206;SDS011;9229;52.354;20.886;2022-07-29T21:43:43;1.83;;;1.73;;
18206;SDS011;9229;52.354;20.886;2022-07-29T21:48:45;1.65;;;1.63;;
18206;SDS011;9229;52.354;20.886;2022-07-29T21:53:48;2.53;;;1.77;;
18206;SDS011;9229;52.354;20.886;2022-07-29T21:58:51;6.68;;;1.88;;
18206;SDS011;9229;52.354;20.886;2022-07-29T22:03:53;2.30;;;1.80;;
18206;SDS011;9229;52.354;20.886;2022-07-29T22:08:56;2.10;;;2.00;;
18206;SDS011;9229;52.354;20.886;2022-07-29T22:13:58;1.88;;;1.77;;
18206;SDS011;9229;52.354;20.886;2022-07-29T22:19:06;1.88;;;1.60;;
18206;SDS011;9229;52.354;20.886;2022-07-29T22:29:47;2.55;;;1.75;;
18206;SDS011;9229;52.354;20.886;2022-07-29T22:34:49;1.90;;;1.80;;
18206;SDS011;9229;52.354;20.886;2022-07-29T22:39:52;1.50;;;1.50;;
18206;SDS011;9229;52.354;20.886;2022-07-29T22:44:54;1.70;;;1.60;;
18206;SDS011;9229;52.354;20.886;2022-07-29T22:49:56;2.20;;;1.98;;
18206;SDS011;9229;52.354;20.886;2022-07-29T22:54:59;1.70;;;1.60;;
18206;SDS011;9229;52.354;20.886;2022-07-29T23:00:02;1.75;;;1.60;;
18206;SDS011;9229;52.354;20.886;2022-07-29T23:05:05;1.77;;;1.67;;
18206;SDS011;9229;52.354;20.886;2022-07-29T23:10:09;1.40;;;1.40;;
18206;SDS011;9229;52.354;20.886;2022-07-29T23:15:11;2.00;;;1.40;;
18206;SDS011;9229;52.354;20.886;2022-07-29T23:20:13;2.33;;;1.52;;
18206;SDS011;9229;52.354;20.886;2022-07-29T23:25:16;1.88;;;1.60;;
18206;SDS011;9229;52.354;20.886;2022-07-29T23:30:18;4.40;;;1.50;;
18206;SDS011;9229;52.354;20.886;2022-07-29T23:35:20;1.75;;;1.50;;
18206;SDS011;9229;52.354;20.886;2022-07-29T23:40:23;1.67;;;1.67;;
18206;SDS011;9229;52.354;20.886;2022-07-29T23:45:25;1.50;;;1.40;;
18206;SDS011;9229;52.354;20.886;2022-07-29T23:50:27;1.70;;;1.60;;
18206;SDS011;9229;52.354;20.886;2022-07-29T23:55:30;1.58;;;1.58;;
